Portada
METAR-TAF:

METAR-TAF

Aeroports :

Sapporo, Japó

latitud: 43-07N, longitud: 141-23E, altitud: 8 m

Observació

L'informe es va fer fa 24 minuts, a les 01:15 UTC
Vent 13 kt del Oest
Temperatura -2°C
Humitat 86%
Pressió 1016 hPa
Visibilitat: 2000 m
Núvols disperses a una alçada de 500 ft
Cel ennuvolat a una alçada de 1000 ft
Cel ennuvolat a una alçada de 2000 ft
xàfecs de neu

METAR: RJCO 040115Z 28013KT 2000 -SHSN SCT005 BKN010 BKN020 M02/M04 Q1016 RMK 3ST005 5ST010 6CU020 A3002

Hora: 10:39 (01:39 UTC)


TAF: manca

Observacions i pronòstics meteorològics de més de 4000 aeroports (METAR i TAF).

Les estacions disponibles són els punts grocs i vermells al mapa.

Posi el ratolí al punt desitjat per veure el nom de l'estació.

Feu clic per veure les observacions i els pronòstics meteorològics.

Per canviar el mapa: feu clic els botons verds amb una creu de color negre per apropar; al botó verd amb un guió per allunyar la imatge; o en les fletxes verdes per a mapes adjacents.


METAR-TAF: